Terminal Aerodrome Forecast
Issued by NWS

Home | Current Version | Previous Version | Text Only | Print | Product List | Glossary On
Versions: 1 2 3 4 5 6 7 8 9 10 11 12 13 14 15 16 17 18 19 20 21 22 23 24 25 26 27 28 29 30 31
000
FTUS41 KOKX 191535 AAB
TAFSWF
TAF AMD
KSWF 191535Z 1916/2018 33007KT 6SM -SHRA BR OVC010
     FM191900 32012G20KT 6SM -SHRA BKN020
     FM192100 31017G25KT P6SM BKN035
     FM200500 30014G22KT P6SM SCT035
      AMD NOT SKED=

USA.gov is the U.S. government's official web portal to all federal, state and local government web resources and services.